^^
Meteo Knjazevac Station Historical Data
Daily Summary for August 14, 2021 Units:  Metric    English   Both
Daily Weekly Monthly Yearly Custom
  High: Low: Average:
Temperature: 1 °C -3.1 °C -0.4 °C
Dew Point: -1.1 °C -3.8 °C -1.9 °C
Humidity: 95% 81% 89%
Wind Speed: 14.5km/h 0km/h 6.3km/h
Wind Gust: 30.6km/h - -
Wind- - SW
Pressure: 1015.1 hPa 1009.7 hPa -
Precipitation: 0 mm    
Historical Graphs
 
 
Tabular Data for August 14, 2021
Time Temperature Dew Point Pressure Wind Wind Speed Wind Gust Humidity Rainfall Rate (Hourly) solar Conditions
00:00 -0.1 °C -1.6 °C 1015.1 hPa WSW 11.3 km/h 17.7 km/h 90% 0 mm 0 W/m2
00:10 -0.1 °C -1.6 °C 1015.1 hPa WSW 9.7 km/h 17.7 km/h 90% 0 mm 0 W/m2
00:30 -0.1 °C -1.6 °C 1015.1 hPa WSW 9.7 km/h 22.5 km/h 90% 0 mm 0 W/m2
00:40 -0.1 °C -1.6 °C 1015.1 hPa WSW 14.5 km/h 20.9 km/h 90% 0 mm 0 W/m2
00:50 -0.1 °C -1.6 °C 1015.1 hPa WSW 9.7 km/h 22.5 km/h 90% 0 mm 0 W/m2
01:00 -0.2 °C -1.7 °C 1015.1 hPa WSW 8 km/h 17.7 km/h 90% 0 mm 0 W/m2
01:10 -0.3 °C -1.7 °C 1015.1 hPa WSW 12.9 km/h 19.3 km/h 90% 0 mm 0 W/m2
01:20 -0.2 °C -1.8 °C 1015.1 hPa WSW 11.3 km/h 20.9 km/h 89% 0 mm 0 W/m2
01:30 -0.2 °C -1.8 °C 1015.1 hPa WSW 12.9 km/h 17.7 km/h 89% 0 mm 0 W/m2
01:40 -0.2 °C -1.8 °C 1015.1 hPa WSW 9.7 km/h 20.9 km/h 89% 0 mm 0 W/m2
02:00 -0.2 °C -1.8 °C 1015.1 hPa WSW 9.7 km/h 19.3 km/h 89% 0 mm 0 W/m2
02:10 -0.3 °C -1.9 °C 1015.1 hPa WSW 9.7 km/h 12.9 km/h 89% 0 mm 0 W/m2
02:20 -0.4 °C -1.8 °C 1015.1 hPa WSW 9.7 km/h 14.5 km/h 90% 0 mm 0 W/m2
02:30 -0.6 °C -2.1 °C 1015.1 hPa WSW 9.7 km/h 14.5 km/h 90% 0 mm 0 W/m2
02:40 -0.7 °C -2.1 °C 1015.1 hPa WSW 9.7 km/h 14.5 km/h 90% 0 mm 0 W/m2
02:50 -0.7 °C -2 °C 1014.8 hPa WSW 14.5 km/h 20.9 km/h 91% 0 mm 0 W/m2
03:00 -0.7 °C -2 °C 1014.8 hPa WSW 9.7 km/h 19.3 km/h 91% 0 mm 0 W/m2
03:10 -0.8 °C -2.1 °C 1014.8 hPa WSW 3.2 km/h 11.3 km/h 91% 0 mm 0 W/m2
03:20 -0.8 °C -2.1 °C 1014.8 hPa WSW 4.8 km/h 11.3 km/h 91% 0 mm 0 W/m2
03:30 -0.8 °C -2.1 °C 1014.8 hPa WSW 11.3 km/h 12.9 km/h 91% 0 mm 0 W/m2
03:40 -0.8 °C -2.1 °C 1014.4 hPa WSW 4.8 km/h 12.9 km/h 91% 0 mm 0 W/m2
03:50 -0.8 °C -2.1 °C 1014.4 hPa WSW 3.2 km/h 9.7 km/h 91% 0 mm 0 W/m2
04:00 -0.8 °C -2.1 °C 1014.4 hPa West 3.2 km/h 9.7 km/h 91% 0 mm 0 W/m2
04:10 -0.8 °C -2.1 °C 1014.4 hPa WSW 8 km/h 9.7 km/h 91% 0 mm 0 W/m2
04:20 -0.8 °C -2.1 °C 1014.4 hPa WSW 3.2 km/h 9.7 km/h 91% 0 mm 0 W/m2
04:30 -0.9 °C -2.2 °C 1014.1 hPa SW 8 km/h 12.9 km/h 91% 0 mm 0 W/m2
04:40 -0.9 °C -2.2 °C 1014.1 hPa WSW 8 km/h 12.9 km/h 91% 0 mm 0 W/m2
04:50 -0.9 °C -2.2 °C 1014.1 hPa WSW 8 km/h 12.9 km/h 91% 0 mm 0 W/m2
05:00 -0.9 °C -2.2 °C 1013.8 hPa SW 8 km/h 12.9 km/h 91% 0 mm 0 W/m2
05:10 -1 °C -2.3 °C 1013.8 hPa WSW 4.8 km/h 12.9 km/h 91% 0 mm 0 W/m2
05:20 -1.1 °C -2.4 °C 1013.8 hPa WSW 4.8 km/h 12.9 km/h 91% 0 mm 0 W/m2
05:30 -1.2 °C -2.5 °C 1013.8 hPa WSW 1.6 km/h 11.3 km/h 91% 0 mm 0 W/m2
05:40 -1.3 °C -2.6 °C 1013.4 hPa West 1.6 km/h 9.7 km/h 91% 0 mm 0 W/m2
05:50 -1.3 °C -2.6 °C 1013.4 hPa Calm   4.8 km/h 91% 0 mm 0 W/m2
06:00 -1.4 °C -2.4 °C 1013.4 hPa NW 1.6 km/h 3.2 km/h 93% 0 mm 0 W/m2
06:10 -1.6 °C -2.6 °C 1013.1 hPa West 1.6 km/h 3.2 km/h 93% 0 mm 0 W/m2
06:20 -1.8 °C -2.8 °C 1013.1 hPa Calm   4.8 km/h 93% 0 mm 0 W/m2
06:30 -2 °C -2.8 °C 1013.1 hPa WSW 3.2 km/h 8 km/h 94% 0 mm 0 W/m2
06:40 -2.1 °C -2.9 °C 1013.1 hPa SW 1.6 km/h 4.8 km/h 94% 0 mm 0 W/m2
06:50 -2.2 °C -3.1 °C 1013.1 hPa SW 4.8 km/h 11.3 km/h 94% 0 mm 0 W/m2
07:00 -2.2 °C -3.1 °C 1013.1 hPa SW 3.2 km/h 6.4 km/h 94% 0 mm 0 W/m2
07:10 -2.3 °C -3.1 °C 1012.8 hPa WSW 1.6 km/h 4.8 km/h 94% 0 mm 7 W/m2
07:20 -2.5 °C -3.3 °C 1012.8 hPa WSW 1.6 km/h 3.2 km/h 94% 0 mm 9 W/m2
07:30 -2.7 °C -3.4 °C 1012.8 hPa SW 1.6 km/h 3.2 km/h 95% 0 mm 24 W/m2
07:40 -2.9 °C -3.6 °C 1012.8 hPa Calm   4.8 km/h 95% 0 mm 33 W/m2
07:50 -3.1 °C -3.8 °C 1012.4 hPa SW 1.6 km/h 4.8 km/h 95% 0 mm 44 W/m2
08:00 -3.1 °C -3.7 °C 1012.4 hPa West 1.6 km/h 4.8 km/h 95% 0 mm 39 W/m2
08:10 -2.9 °C -3.6 °C 1012.4 hPa Calm   3.2 km/h 95% 0 mm 98 W/m2
08:20 -2.4 °C -3.2 °C 1012.1 hPa ENE 4.8 km/h 14.5 km/h 95% 0 mm 119 W/m2
08:30 -1.9 °C -2.7 °C 1011.1 hPa SSE 3.2 km/h 22.5 km/h 94% 0 mm 139 W/m2
08:40 -1.3 °C -2.3 °C 1010.7 hPa SSE 8 km/h 22.5 km/h 93% 0 mm 159 W/m2
08:50 -0.9 °C -2.2 °C 1010.7 hPa SSE 9.7 km/h 17.7 km/h 91% 0 mm 177 W/m2
09:00 -0.8 °C -2.2 °C 1010.7 hPa South 1.6 km/h 16.1 km/h 90% 0 mm 104 W/m2
09:10 -0.7 °C -2.3 °C 1010.7 hPa SSE 1.6 km/h 8 km/h 89% 0 mm 81 W/m2
09:20 -0.6 °C -2.2 °C 1010.7 hPa WSW 8 km/h 11.3 km/h 89% 0 mm 101 W/m2
09:30 -0.4 °C -2.2 °C 1010.4 hPa SW 3.2 km/h 11.3 km/h 88% 0 mm 114 W/m2
09:40 -0.3 °C -2.3 °C 1010.4 hPa SSW 4.8 km/h 12.9 km/h 86% 0 mm 125 W/m2
09:50 -0.2 °C -1.9 °C 1010 hPa SSW 4.8 km/h 9.7 km/h 88% 0 mm 109 W/m2
10:00 -0.1 °C -2.2 °C 1010 hPa SW 8 km/h 14.5 km/h 86% 0 mm 110 W/m2
10:10 0.1 °C -2.1 °C 1010 hPa SW 8 km/h 14.5 km/h 86% 0 mm 109 W/m2
10:20 0.1 °C -2.1 °C 1010 hPa SW 9.7 km/h 19.3 km/h 85% 0 mm 149 W/m2
10:30 0.2 °C -2.2 °C 1010.4 hPa SW 11.3 km/h 20.9 km/h 84% 0 mm 133 W/m2
10:40 0.3 °C -2.2 °C 1010.4 hPa SW 8 km/h 20.9 km/h 83% 0 mm 126 W/m2
10:50 0.5 °C -2.1 °C 1010 hPa SSW 8 km/h 22.5 km/h 83% 0 mm 155 W/m2
11:00 0.6 °C -1.9 °C 1010.4 hPa South 4.8 km/h 19.3 km/h 83% 0 mm 124 W/m2
11:10 0.6 °C -1.9 °C 1009.7 hPa SSE 4.8 km/h 11.3 km/h 83% 0 mm 129 W/m2
11:20 0.7 °C -1.7 °C 1009.7 hPa SE 8 km/h 14.5 km/h 84% 0 mm 139 W/m2
11:30 0.8 °C -1.6 °C 1009.7 hPa ESE 4.8 km/h 19.3 km/h 84% 0 mm 123 W/m2
11:40 0.8 °C -1.6 °C 1009.7 hPa SSW 4.8 km/h 12.9 km/h 84% 0 mm 113 W/m2
11:50 0.8 °C -1.8 °C 1009.7 hPa South 4.8 km/h 11.3 km/h 83% 0 mm 110 W/m2
12:00 0.8 °C -1.6 °C 1010 hPa WSW 4.8 km/h 11.3 km/h 84% 0 mm 100 W/m2
12:10 0.9 °C -1.8 °C 1009.7 hPa SW 1.6 km/h 14.5 km/h 82% 0 mm 95 W/m2
12:20 0.9 °C -2 °C 1009.7 hPa SSE 8 km/h 12.9 km/h 81% 0 mm 107 W/m2
12:30 0.9 °C -2 °C 1009.7 hPa South 3.2 km/h 8 km/h 81% 0 mm 112 W/m2
12:40 1 °C -1.6 °C 1010 hPa SSW 4.8 km/h 11.3 km/h 83% 0 mm 112 W/m2
12:50 1 °C -1.6 °C 1010 hPa SSW 8 km/h 19.3 km/h 83% 0 mm 94 W/m2
13:00 0.9 °C -1.5 °C 1010 hPa SW 11.3 km/h 27.4 km/h 84% 0 mm 88 W/m2
13:10 0.6 °C -1.5 °C 1010 hPa SW 11.3 km/h 27.4 km/h 86% 0 mm 100 W/m2
13:20 0.4 °C -1.3 °C 1010 hPa SW 9.7 km/h 20.9 km/h 88% 0 mm 96 W/m2
13:30 0.3 °C -1.3 °C 1010 hPa SW 11.3 km/h 22.5 km/h 89% 0 mm 93 W/m2
13:40 0.3 °C -1.3 °C 1009.7 hPa SSW 4.8 km/h 14.5 km/h 89% 0 mm 109 W/m2
13:50 0.4 °C -1.2 °C 1010 hPa South 8 km/h 19.3 km/h 89% 0 mm 114 W/m2
14:00 0.3 °C -1.3 °C 1009.7 hPa SSW 4.8 km/h 19.3 km/h 89% 0 mm 83 W/m2
14:10 0.4 °C -1.2 °C 1010 hPa SW 4.8 km/h 11.3 km/h 89% 0 mm 74 W/m2
14:20 0.4 °C -1.2 °C 1010 hPa SSW 4.8 km/h 12.9 km/h 89% 0 mm 61 W/m2
14:30 0.4 °C -1.4 °C 1010 hPa SSW 8 km/h 16.1 km/h 88% 0 mm 50 W/m2
14:40 0.3 °C -1.3 °C 1010 hPa South 8 km/h 20.9 km/h 89% 0 mm 45 W/m2
14:50 0.3 °C -1.3 °C 1009.7 hPa SSW 9.7 km/h 20.9 km/h 89% 0 mm 38 W/m2
15:00 0.3 °C -1.3 °C 1010 hPa SW 8 km/h 22.5 km/h 89% 0 mm 35 W/m2
15:10 0.2 °C -1.4 °C 1010 hPa SSW 12.9 km/h 24.1 km/h 89% 0 mm 39 W/m2
15:20 0.2 °C -1.4 °C 1010.4 hPa SW 9.7 km/h 24.1 km/h 89% 0 mm 27 W/m2
15:30 0.2 °C -1.4 °C 1010.4 hPa SW 12.9 km/h 20.9 km/h 89% 0 mm 14 W/m2
15:40 0.2 °C -1.2 °C 1010.4 hPa SW 9.7 km/h 19.3 km/h 90% 0 mm 9 W/m2
15:50 0.2 °C -1.2 °C 1010.4 hPa SW 9.7 km/h 19.3 km/h 90% 0 mm 7 W/m2
16:00 0.1 °C -1.3 °C 1010.7 hPa WSW 12.9 km/h 20.9 km/h 90% 0 mm 3 W/m2
16:10 0.1 °C -1.3 °C 1010.7 hPa SW 9.7 km/h 24.1 km/h 90% 0 mm 2 W/m2
16:20 0.1 °C -1.3 °C 1010.7 hPa SW 9.7 km/h 19.3 km/h 90% 0 mm 0 W/m2
16:30 0.1 °C -1.3 °C 1011.1 hPa SW 8 km/h 12.9 km/h 90% 0 mm 0 W/m2
16:40 0.1 °C -1.3 °C 1011.1 hPa SW 8 km/h 14.5 km/h 90% 0 mm 0 W/m2
16:50 0.1 °C -1.3 °C 1011.1 hPa SW 4.8 km/h 14.5 km/h 90% 0 mm 0 W/m2
17:00 0 °C -1.3 °C 1011.1 hPa SW 9.7 km/h 14.5 km/h 91% 0 mm 0 W/m2
17:10 0 °C -1.3 °C 1011.1 hPa SW 1.6 km/h 11.3 km/h 91% 0 mm 0 W/m2
17:20 0 °C -1.3 °C 1011.1 hPa North 4.8 km/h 9.7 km/h 91% 0 mm 0 W/m2
17:30 -0.1 °C -1.3 °C 1011.1 hPa North 4.8 km/h 11.3 km/h 91% 0 mm 0 W/m2
17:40 -0.1 °C -1.1 °C 1011.4 hPa Calm   8 km/h 93% 0 mm 0 W/m2
17:50 -0.1 °C -1.1 °C 1011.7 hPa West 3.2 km/h 11.3 km/h 93% 0 mm 0 W/m2
18:00 -0.1 °C -1.1 °C 1011.4 hPa West 3.2 km/h 17.7 km/h 93% 0 mm 0 W/m2
18:10 0 °C -1.4 °C 1011.7 hPa West 9.7 km/h 20.9 km/h 90% 0 mm 0 W/m2
18:20 0 °C -1.6 °C 1011.7 hPa WSW 11.3 km/h 30.6 km/h 89% 0 mm 0 W/m2
18:30 0 °C -1.6 °C 1011.7 hPa WSW 9.7 km/h 24.1 km/h 89% 0 mm 0 W/m2
18:40 0 °C -1.6 °C 1011.7 hPa West 4.8 km/h 19.3 km/h 89% 0 mm 0 W/m2
18:50 -0.1 °C -1.7 °C 1011.7 hPa SW 4.8 km/h 12.9 km/h 89% 0 mm 0 W/m2
19:00 -0.2 °C -1.8 °C 1011.7 hPa WSW 4.8 km/h 17.7 km/h 89% 0 mm 0 W/m2
19:10 -0.2 °C -1.8 °C 1011.7 hPa SSE 4.8 km/h 12.9 km/h 89% 0 mm 0 W/m2
19:20 -0.2 °C -1.8 °C 1011.7 hPa NNE 3.2 km/h 12.9 km/h 89% 0 mm 0 W/m2
19:30 -0.2 °C -1.8 °C 1012.1 hPa ESE 3.2 km/h 11.3 km/h 89% 0 mm 0 W/m2
19:40 -0.1 °C -1.7 °C 1012.1 hPa NNE 1.6 km/h 12.9 km/h 89% 0 mm 0 W/m2
19:50 -0.1 °C -1.7 °C 1012.1 hPa SSE 1.6 km/h 19.3 km/h 89% 0 mm 0 W/m2
20:00 -0.1 °C -1.8 °C 1012.1 hPa SSW 1.6 km/h 11.3 km/h 88% 0 mm 0 W/m2
20:10 -0.1 °C -1.7 °C 1012.4 hPa NE 1.6 km/h 11.3 km/h 89% 0 mm 0 W/m2
20:20 -0.1 °C -1.7 °C 1012.4 hPa NNE 3.2 km/h 11.3 km/h 89% 0 mm 0 W/m2
20:30 -0.1 °C -1.7 °C 1012.8 hPa NNE 3.2 km/h 11.3 km/h 89% 0 mm 0 W/m2
20:40 -0.1 °C -1.7 °C 1012.8 hPa NW 9.7 km/h 14.5 km/h 89% 0 mm 0 W/m2
20:50 -0.1 °C -1.6 °C 1013.1 hPa West 1.6 km/h 19.3 km/h 90% 0 mm 0 W/m2
21:00 -0.1 °C -1.6 °C 1013.1 hPa West 4.8 km/h 8 km/h 90% 0 mm 0 W/m2
21:10 -0.2 °C -1.7 °C 1013.1 hPa Calm   9.7 km/h 90% 0 mm 0 W/m2
21:20 -0.2 °C -1.7 °C 1013.4 hPa NW 3.2 km/h 8 km/h 90% 0 mm 0 W/m2
21:30 -0.2 °C -1.7 °C 1013.4 hPa WSW 11.3 km/h 19.3 km/h 90% 0 mm 0 W/m2
21:40 -0.3 °C -1.9 °C 1013.4 hPa WSW 11.3 km/h 20.9 km/h 89% 0 mm 0 W/m2
21:50 -0.5 °C -1.9 °C 1013.4 hPa WSW 4.8 km/h 19.3 km/h 90% 0 mm 0 W/m2
22:00 -0.6 °C -2.1 °C 1013.4 hPa WSW 3.2 km/h 14.5 km/h 90% 0 mm 0 W/m2
22:10 -0.6 °C -2.1 °C 1013.8 hPa WSW 1.6 km/h 6.4 km/h 90% 0 mm 0 W/m2
22:20 -0.6 °C -2.1 °C 1013.4 hPa SE 3.2 km/h 11.3 km/h 90% 0 mm 0 W/m2
22:30 -0.5 °C -2.1 °C 1013.8 hPa South 3.2 km/h 12.9 km/h 89% 0 mm 0 W/m2
22:40 -0.4 °C -2.2 °C 1013.8 hPa SSW 8 km/h 14.5 km/h 88% 0 mm 0 W/m2
22:50 -0.3 °C -2.1 °C 1014.1 hPa SW 8 km/h 16.1 km/h 88% 0 mm 0 W/m2
23:00 -0.3 °C -2.1 °C 1013.8 hPa WSW 11.3 km/h 19.3 km/h 88% 0 mm 0 W/m2
23:10 -0.4 °C -2 °C 1014.1 hPa WSW 9.7 km/h 20.9 km/h 89% 0 mm 0 W/m2
23:20 -0.5 °C -2.1 °C 1013.8 hPa WSW 8 km/h 22.5 km/h 89% 0 mm 0 W/m2
23:30 -0.5 °C -1.9 °C 1014.1 hPa WNW 3.2 km/h 11.3 km/h 90% 0 mm 0 W/m2
23:50 -0.6 °C -2.2 °C 1014.1 hPa North 3.2 km/h 9.7 km/h 89% 0 mm 0 W/m2
Knjazevac, Serbia
Compliments of Weather Underground - 2 mb